createdAt,value
2019-05-25T00:00:56.545Z,18.00
2019-05-25T00:03:25.280Z,17.82
2019-05-25T00:05:54.018Z,18.37
2019-05-25T00:08:22.683Z,17.15
2019-05-25T00:10:51.442Z,17.32
2019-05-25T00:13:20.111Z,18.05
2019-05-25T00:15:49.050Z,18.45
2019-05-25T00:18:17.847Z,18.75
2019-05-25T00:20:46.541Z,18.90
2019-05-25T00:23:15.214Z,18.82
2019-05-25T00:25:43.893Z,20.20
2019-05-25T00:28:12.567Z,19.35
2019-05-25T00:30:41.386Z,18.82
2019-05-25T00:33:10.069Z,19.67
2019-05-25T00:35:38.891Z,18.40
2019-05-25T00:38:07.585Z,22.35
2019-05-25T00:40:36.239Z,23.42
2019-05-25T00:43:05.089Z,18.57
2019-05-25T00:45:33.825Z,20.15
2019-05-25T00:48:02.481Z,18.70
2019-05-25T00:50:32.733Z,20.60
2019-05-25T00:53:01.496Z,21.95
2019-05-25T00:55:30.419Z,19.12
2019-05-25T00:57:59.248Z,18.67
2019-05-25T01:00:27.981Z,20.65
2019-05-25T01:02:56.654Z,20.35
2019-05-25T01:05:25.338Z,20.70
2019-05-25T01:07:53.995Z,22.73
2019-05-25T01:10:22.763Z,20.95
2019-05-25T01:12:51.418Z,21.07
2019-05-25T01:15:20.450Z,20.80
2019-05-25T01:17:49.315Z,24.40
2019-05-25T01:20:18.771Z,22.55
2019-05-25T01:22:47.511Z,22.67
2019-05-25T01:25:17.206Z,22.60
2019-05-25T01:27:45.937Z,22.02
2019-05-25T01:30:15.350Z,21.80
2019-05-25T01:32:44.054Z,23.07
2019-05-25T01:35:12.841Z,22.40
2019-05-25T01:37:41.598Z,21.97
2019-05-25T01:40:11.011Z,23.35
2019-05-25T01:42:39.667Z,22.25
2019-05-25T01:45:09.368Z,22.90
2019-05-25T01:47:38.040Z,21.85
2019-05-25T01:50:07.233Z,23.00
2019-05-25T01:52:36.130Z,22.42
2019-05-25T01:55:12.308Z,23.87
2019-05-25T01:57:41.636Z,23.38
2019-05-25T02:00:14.794Z,22.42
2019-05-25T02:02:45.226Z,23.50
2019-05-25T02:05:23.689Z,23.05
2019-05-25T02:07:52.371Z,22.75
2019-05-25T02:10:21.473Z,21.02
2019-05-25T02:12:51.811Z,20.88
2019-05-25T02:15:20.791Z,22.37
2019-05-25T02:17:49.516Z,21.70
2019-05-25T02:20:18.752Z,21.48
2019-05-25T02:22:47.423Z,22.32
2019-05-25T02:25:18.545Z,22.07
2019-05-25T02:27:46.834Z,22.80
2019-05-25T02:30:19.206Z,22.15
2019-05-25T02:32:47.895Z,21.50
2019-05-25T02:35:25.486Z,22.93
2019-05-25T02:37:54.323Z,21.30
2019-05-25T02:40:23.129Z,20.52
2019-05-25T02:42:51.822Z,21.57
2019-05-25T02:45:20.610Z,22.87
2019-05-25T02:47:49.714Z,20.88
2019-05-25T02:50:19.673Z,22.22
2019-05-25T02:52:48.428Z,22.52
2019-05-25T02:55:32.442Z,22.27
2019-05-25T02:57:47.744Z,22.07
2019-05-25T03:00:17.145Z,23.02
2019-05-25T03:02:46.131Z,25.37
2019-05-25T03:05:15.848Z,23.02
2019-05-25T03:07:45.530Z,22.82
2019-05-25T03:10:14.950Z,23.73
2019-05-25T03:12:44.660Z,23.60
2019-05-25T03:15:13.758Z,26.35
2019-05-25T03:17:42.579Z,24.23
2019-05-25T03:20:11.682Z,26.95
2019-05-25T03:22:40.356Z,25.12
2019-05-25T03:25:09.194Z,23.83
2019-05-25T03:27:37.862Z,25.92
2019-05-25T03:30:10.133Z,24.98
2019-05-25T03:32:38.937Z,25.35
2019-05-25T03:35:08.264Z,26.97
2019-05-25T03:37:36.987Z,25.32
2019-05-25T03:40:07.583Z,25.37
2019-05-25T03:42:36.376Z,24.07
2019-05-25T03:45:08.532Z,26.82
2019-05-25T03:47:37.267Z,25.75
2019-05-25T03:50:06.375Z,25.17
2019-05-25T03:52:35.169Z,25.10
2019-05-25T03:55:05.306Z,26.75
2019-05-25T03:57:34.102Z,28.20
2019-05-25T04:00:02.839Z,27.17
2019-05-25T04:02:31.494Z,29.10
2019-05-25T04:05:00.179Z,29.12
2019-05-25T04:07:28.858Z,31.17
2019-05-25T04:09:57.595Z,32.42
2019-05-25T04:12:26.279Z,28.70
2019-05-25T04:14:54.948Z,30.97
2019-05-25T04:17:23.610Z,31.30
2019-05-25T04:19:52.288Z,32.58
2019-05-25T04:22:20.965Z,30.77
2019-05-25T04:24:49.704Z,30.60
2019-05-25T04:27:18.378Z,33.85
2019-05-25T04:29:47.122Z,34.18
2019-05-25T04:32:15.787Z,32.05
2019-05-25T04:34:44.467Z,35.73
2019-05-25T04:37:13.196Z,35.65
2019-05-25T04:39:41.881Z,36.63
2019-05-25T04:42:10.539Z,33.15
2019-05-25T04:44:39.222Z,35.03
2019-05-25T04:47:07.887Z,35.00
2019-05-25T04:49:36.580Z,33.73
2019-05-25T04:52:06.152Z,33.40
2019-05-25T04:54:34.802Z,36.83
2019-05-25T04:57:03.933Z,33.33
2019-05-25T04:59:32.952Z,35.63
2019-05-25T05:02:01.687Z,33.75
2019-05-25T05:04:30.334Z,35.10
2019-05-25T05:06:59.184Z,32.35
2019-05-25T05:09:27.883Z,32.95
2019-05-25T05:11:56.586Z,31.50
2019-05-25T05:14:25.558Z,37.28
2019-05-25T05:16:54.211Z,38.05
2019-05-25T05:19:22.951Z,38.90
2019-05-25T05:21:51.677Z,40.43
2019-05-25T05:24:20.332Z,39.00
2019-05-25T05:26:55.710Z,39.67
2019-05-25T05:29:19.337Z,35.10
2019-05-25T05:31:48.061Z,35.45
2019-05-25T05:34:16.817Z,33.15
2019-05-25T05:36:46.209Z,33.75
2019-05-25T05:39:15.541Z,34.78
2019-05-25T05:41:46.875Z,37.00
2019-05-25T05:44:18.701Z,36.93
2019-05-25T05:46:48.864Z,42.58
2019-05-25T05:49:18.562Z,37.42
2019-05-25T05:51:50.308Z,41.23
2019-05-25T05:54:20.579Z,37.93
2019-05-25T05:56:49.729Z,38.88
2019-05-25T05:59:18.530Z,39.65
2019-05-25T06:01:47.306Z,37.88
2019-05-25T06:04:16.065Z,37.58
2019-05-25T06:06:44.745Z,34.75
2019-05-25T06:09:13.484Z,35.52
2019-05-25T06:11:42.245Z,36.08
2019-05-25T06:14:11.010Z,35.00
2019-05-25T06:16:39.692Z,36.55
2019-05-25T06:19:08.350Z,34.38
2019-05-25T06:21:37.021Z,33.45
2019-05-25T06:24:07.752Z,34.03
2019-05-25T06:26:36.830Z,34.15
2019-05-25T06:29:05.646Z,31.75
2019-05-25T06:31:36.081Z,31.02
2019-05-25T06:34:05.039Z,31.40
2019-05-25T06:36:33.753Z,29.32
2019-05-25T06:39:02.490Z,29.63
2019-05-25T06:41:31.170Z,29.75
2019-05-25T06:43:59.943Z,28.35
2019-05-25T06:46:28.694Z,26.70
2019-05-25T06:48:57.471Z,27.85
2019-05-25T06:51:29.423Z,27.35
2019-05-25T06:53:58.097Z,22.55
2019-05-25T06:56:26.800Z,17.60
2019-05-25T06:58:55.498Z,13.90
2019-05-25T07:01:24.471Z,13.55
2019-05-25T07:03:53.216Z,14.53
2019-05-25T07:06:21.934Z,12.10
2019-05-25T07:08:50.697Z,11.85
2019-05-25T07:11:19.490Z,12.18
2019-05-25T07:13:48.183Z,11.43
2019-05-25T07:16:16.946Z,13.28
2019-05-25T07:18:45.813Z,10.90
2019-05-25T07:21:14.724Z,11.05
2019-05-25T07:23:43.375Z,9.65
2019-05-25T07:26:12.069Z,9.43
2019-05-25T07:28:41.307Z,8.38
2019-05-25T07:31:10.132Z,8.23
2019-05-25T07:33:38.855Z,7.97
2019-05-25T07:36:08.090Z,6.03
2019-05-25T07:38:36.926Z,5.78
2019-05-25T07:41:05.665Z,6.47
2019-05-25T07:43:34.474Z,6.37
2019-05-25T07:46:03.375Z,4.53
2019-05-25T07:48:32.116Z,3.67
2019-05-25T07:51:00.816Z,2.67
2019-05-25T07:53:29.706Z,2.37
2019-05-25T07:55:58.389Z,2.17
2019-05-25T07:58:27.083Z,2.52
2019-05-25T08:00:55.857Z,2.10
2019-05-25T08:03:24.562Z,2.17
2019-05-25T08:05:53.336Z,2.25
2019-05-25T08:08:22.241Z,1.98
2019-05-25T08:10:51.174Z,1.87
2019-05-25T08:13:19.911Z,2.55
2019-05-25T08:15:48.782Z,2.00
2019-05-25T08:18:17.604Z,2.30
2019-05-25T08:20:47.333Z,1.70
2019-05-25T08:23:20.924Z,1.70
2019-05-25T08:25:49.045Z,1.75
2019-05-25T08:28:31.706Z,1.82
2019-05-25T08:30:48.654Z,1.80
2019-05-25T08:33:19.424Z,1.55
2019-05-25T08:35:48.408Z,1.25
2019-05-25T08:38:18.843Z,1.07
2019-05-25T08:40:47.582Z,1.30
2019-05-25T08:43:16.519Z,1.45
2019-05-25T08:45:48.487Z,1.52
2019-05-25T08:48:17.349Z,1.07
2019-05-25T08:50:46.238Z,1.82
2019-05-25T08:53:15.084Z,1.37
2019-05-25T08:55:50.566Z,1.35
2019-05-25T08:58:22.845Z,0.93
2019-05-25T09:01:00.669Z,1.35
2019-05-25T09:03:29.501Z,1.70
2019-05-25T09:22:01.374Z,2.27
2019-05-25T09:31:14.963Z,1.82
2019-05-25T09:34:09.168Z,2.30
2019-05-25T09:36:26.262Z,2.20
2019-05-25T09:39:00.057Z,1.82
2019-05-25T09:44:33.046Z,2.00
2019-05-25T09:49:49.489Z,1.62
2019-05-25T09:52:20.039Z,2.20
2019-05-25T09:54:56.629Z,4.78
2019-05-25T09:57:27.106Z,5.72
2019-05-25T10:00:13.171Z,2.10
2019-05-25T10:02:45.128Z,2.02
2019-05-25T10:06:11.526Z,1.67
2019-05-25T10:08:41.406Z,2.15
2019-05-25T10:11:11.414Z,1.77
2019-05-25T10:13:45.978Z,2.25
2019-05-25T10:16:17.244Z,3.30
2019-05-25T10:18:51.929Z,4.45
2019-05-25T10:21:20.554Z,2.55
2019-05-25T10:23:55.423Z,2.33
2019-05-25T10:26:26.343Z,2.37
2019-05-25T10:29:00.717Z,3.85
2019-05-25T10:31:29.646Z,2.40
2019-05-25T10:34:01.476Z,2.80
2019-05-25T10:36:49.248Z,2.87
2019-05-25T10:39:37.063Z,2.62
2019-05-25T10:42:25.746Z,2.62
2019-05-25T10:44:57.519Z,2.37
2019-05-25T10:47:26.835Z,2.22
2019-05-25T10:49:56.062Z,2.60
2019-05-25T10:52:27.585Z,2.30
2019-05-25T10:54:56.365Z,2.67
2019-05-25T10:57:25.216Z,4.90
2019-05-25T10:59:55.607Z,3.62
2019-05-25T11:02:24.360Z,3.90
2019-05-25T11:04:53.063Z,3.17
2019-05-25T11:07:21.754Z,2.87
2019-05-25T11:09:50.728Z,3.05
2019-05-25T11:12:19.604Z,2.45
2019-05-25T11:14:49.898Z,3.25
2019-05-25T11:17:18.670Z,3.30
2019-05-25T11:19:47.411Z,3.80
2019-05-25T11:22:16.919Z,4.10
2019-05-25T11:24:45.900Z,3.45
2019-05-25T11:27:14.583Z,3.55
2019-05-25T11:29:43.313Z,4.65
2019-05-25T11:32:12.066Z,4.53
2019-05-25T11:34:41.078Z,3.90
2019-05-25T11:37:10.087Z,3.60
2019-05-25T11:39:39.063Z,3.52
2019-05-25T11:42:07.919Z,4.35
2019-05-25T11:44:36.722Z,4.12
2019-05-25T11:47:05.728Z,5.33
2019-05-25T11:49:34.796Z,6.75
2019-05-25T11:52:08.921Z,6.55
2019-05-25T11:54:37.815Z,5.20
2019-05-25T11:57:12.575Z,5.83
2019-05-25T11:59:41.736Z,5.80
2019-05-25T12:02:10.575Z,5.90
2019-05-25T12:04:39.717Z,5.78
2019-05-25T12:07:08.987Z,8.68
2019-05-25T12:10:02.893Z,13.00
2019-05-25T12:12:47.175Z,6.60
2019-05-25T12:15:24.224Z,9.70
2019-05-25T12:17:59.284Z,10.35
2019-05-25T12:20:29.477Z,10.72
2019-05-25T12:23:01.895Z,10.35
2019-05-25T12:25:32.283Z,11.00
2019-05-25T12:28:01.071Z,9.95
2019-05-25T12:30:40.496Z,7.95
2019-05-25T12:33:08.468Z,8.15
2019-05-25T12:35:40.839Z,8.73
2019-05-25T12:38:11.078Z,15.10
2019-05-25T12:40:53.700Z,12.20
2019-05-25T12:43:17.945Z,15.72
2019-05-25T12:45:47.267Z,12.90
2019-05-25T12:48:16.268Z,13.35
2019-05-25T12:50:52.575Z,14.10
2019-05-25T12:53:26.005Z,12.25
2019-05-25T12:58:32.820Z,12.05
2019-05-25T13:11:18.894Z,15.68
2019-05-25T13:26:34.082Z,15.70
2019-05-25T13:29:16.351Z,17.45
2019-05-25T13:34:59.025Z,16.50
2019-05-25T13:46:35.403Z,12.37
2019-05-25T13:52:20.357Z,12.80
2019-05-25T13:57:49.258Z,13.45
2019-05-25T14:00:18.497Z,13.38
2019-05-25T14:02:47.453Z,13.08
2019-05-25T14:05:30.426Z,14.55
2019-05-25T14:08:01.467Z,13.43
2019-05-25T14:22:59.304Z,10.38
2019-05-25T14:25:31.165Z,10.50
2019-05-25T14:28:08.302Z,11.80
2019-05-25T14:30:39.292Z,10.10
2019-05-25T14:33:08.171Z,9.95
2019-05-25T14:35:36.935Z,9.13
2019-05-25T14:38:08.942Z,8.70
2019-05-25T14:40:37.839Z,9.75
2019-05-25T14:43:06.572Z,10.43
2019-05-25T14:48:23.559Z,10.85
2019-05-25T14:50:52.279Z,11.95
2019-05-25T14:53:35.356Z,10.48
2019-05-25T14:56:06.613Z,10.83
2019-05-25T14:58:35.700Z,10.75
2019-05-25T15:01:06.489Z,9.58
2019-05-25T15:03:35.525Z,9.38
2019-05-25T15:06:08.836Z,9.38
2019-05-25T15:08:37.846Z,10.58
2019-05-25T15:11:06.676Z,10.93
2019-05-25T15:13:43.839Z,10.82
2019-05-25T15:16:13.161Z,10.15
2019-05-25T15:18:51.090Z,9.93
2019-05-25T15:21:26.380Z,10.10
2019-05-25T15:24:02.811Z,10.60
2019-05-25T15:26:31.764Z,10.15
2019-05-25T15:29:11.458Z,11.15
2019-05-25T15:32:19.011Z,11.25
2019-05-25T15:34:34.967Z,11.85
2019-05-25T15:37:08.162Z,12.13
2019-05-25T15:39:43.017Z,14.23
2019-05-25T15:42:18.458Z,14.38
2019-05-25T15:44:48.869Z,13.08
2019-05-25T15:47:40.605Z,13.20
2019-05-25T15:50:11.809Z,11.68
2019-05-25T15:55:16.014Z,12.85
2019-05-25T15:58:01.974Z,12.98
2019-05-25T16:00:56.442Z,13.58
2019-05-25T16:03:27.024Z,13.43
2019-05-25T16:05:55.840Z,13.88
2019-05-25T16:08:28.884Z,13.60
2019-05-25T16:11:06.855Z,12.10
2019-05-25T16:13:43.100Z,12.10
2019-05-25T16:17:04.384Z,11.15
2019-05-25T16:25:24.959Z,9.23
2019-05-25T16:27:55.442Z,10.38
2019-05-25T16:30:38.746Z,10.25
2019-05-25T16:36:20.885Z,15.35
2019-05-25T16:38:55.190Z,13.25
2019-05-25T16:41:35.047Z,9.35
2019-05-25T16:44:29.699Z,12.18
2019-05-25T16:50:08.088Z,10.32
2019-05-25T16:52:48.368Z,10.35
2019-05-25T16:55:17.446Z,9.15
2019-05-25T16:57:52.245Z,9.45
2019-05-25T17:00:30.660Z,9.50
2019-05-25T17:03:07.052Z,8.10
2019-05-25T17:05:37.596Z,10.05
2019-05-25T17:08:18.964Z,8.23
2019-05-25T17:10:52.770Z,7.47
2019-05-25T17:19:01.980Z,7.55
2019-05-25T17:21:30.902Z,14.38
2019-05-25T17:24:01.345Z,15.60
2019-05-25T17:26:30.247Z,16.67
2019-05-25T17:28:59.138Z,17.32
2019-05-25T17:31:29.462Z,18.55
2019-05-25T17:33:58.459Z,19.23
2019-05-25T17:36:28.166Z,21.07
2019-05-25T17:38:57.176Z,20.15
2019-05-25T17:41:34.752Z,19.67
2019-05-25T17:44:03.658Z,18.37
2019-05-25T17:46:32.544Z,17.48
2019-05-25T17:49:07.527Z,16.97
2019-05-25T17:51:40.616Z,14.47
2019-05-25T17:54:09.492Z,14.18
2019-05-25T17:56:38.631Z,13.43
2019-05-25T17:59:07.429Z,12.55
2019-05-25T18:07:05.791Z,12.95
2019-05-25T18:09:34.628Z,14.45
2019-05-25T18:12:03.629Z,13.40
2019-05-25T18:14:32.437Z,12.28
2019-05-25T18:17:01.298Z,12.43
2019-05-25T18:19:30.097Z,12.20
2019-05-25T18:21:59.160Z,11.73
2019-05-25T18:24:29.720Z,11.70
2019-05-25T18:26:58.737Z,13.13
2019-05-25T18:29:28.006Z,12.45
2019-05-25T18:31:56.777Z,12.35
2019-05-25T18:34:25.595Z,13.38
2019-05-25T18:36:58.208Z,12.78
2019-05-25T18:39:26.947Z,12.58
2019-05-25T18:41:55.679Z,13.00
2019-05-25T18:44:24.366Z,12.53
2019-05-25T18:46:53.184Z,12.05
2019-05-25T18:49:21.973Z,12.43
2019-05-25T18:51:50.653Z,12.35
2019-05-25T18:54:19.416Z,12.23
2019-05-25T18:56:48.214Z,11.80
2019-05-25T18:59:17.508Z,10.50
2019-05-25T19:01:46.494Z,10.95
2019-05-25T19:04:42.176Z,10.90
2019-05-25T19:06:56.356Z,9.45
2019-05-25T19:09:25.408Z,8.50
2019-05-25T19:11:54.218Z,8.70
2019-05-25T19:14:23.078Z,7.80
2019-05-25T19:17:03.531Z,8.03
2019-05-25T19:22:30.203Z,8.58
2019-05-25T19:24:59.107Z,8.50
2019-05-25T19:27:31.993Z,9.78
2019-05-25T19:30:04.571Z,10.70
2019-05-25T19:32:38.047Z,9.98
2019-05-25T19:35:07.857Z,12.35
2019-05-25T19:37:36.871Z,12.40
2019-05-25T19:40:09.061Z,12.07
2019-05-25T19:42:38.009Z,14.10
2019-05-25T19:45:09.495Z,14.60
2019-05-25T19:47:38.580Z,14.55
2019-05-25T19:50:12.052Z,16.02
2019-05-25T19:52:40.955Z,17.67
2019-05-25T19:55:09.996Z,16.85
2019-05-25T19:57:39.865Z,13.85
2019-05-25T20:00:13.476Z,12.85
2019-05-25T20:02:43.973Z,12.40
2019-05-25T20:05:16.944Z,11.75
2019-05-25T20:07:46.658Z,11.53
2019-05-25T20:10:21.838Z,9.98
2019-05-25T20:12:50.846Z,9.73
2019-05-25T20:15:25.427Z,10.03
2019-05-25T20:17:54.439Z,9.05
2019-05-25T20:20:25.483Z,9.35
2019-05-25T20:22:57.439Z,8.85
2019-05-25T20:25:26.224Z,8.48
2019-05-25T20:27:56.809Z,9.05
2019-05-25T20:30:29.056Z,9.10
2019-05-25T20:33:02.682Z,8.70
2019-05-25T20:35:33.370Z,8.83
2019-05-25T20:38:02.192Z,7.62
2019-05-25T20:40:31.568Z,7.58
2019-05-25T20:43:00.400Z,8.28
2019-05-25T20:45:31.497Z,6.87
2019-05-25T20:48:03.452Z,8.55
2019-05-25T20:50:32.521Z,7.70
2019-05-25T20:53:01.346Z,6.75
2019-05-25T20:55:32.181Z,7.45
2019-05-25T20:58:01.116Z,6.30
2019-05-25T21:00:30.518Z,7.72
2019-05-25T21:03:06.627Z,7.35
2019-05-25T21:05:49.133Z,8.53
2019-05-25T21:08:11.946Z,7.20
2019-05-25T21:10:40.770Z,7.75
2019-05-25T21:13:10.056Z,9.00
2019-05-25T21:15:38.970Z,7.60
2019-05-25T21:18:08.100Z,8.60
2019-05-25T21:20:37.150Z,8.98
2019-05-25T21:23:06.135Z,7.92
2019-05-25T21:25:35.354Z,9.05
2019-05-25T21:28:04.382Z,8.83
2019-05-25T21:30:33.334Z,8.50
2019-05-25T21:33:02.447Z,10.38
2019-05-25T21:35:31.333Z,8.20
2019-05-25T21:38:09.073Z,9.60
2019-05-25T21:40:38.322Z,8.93
2019-05-25T21:43:07.662Z,10.05
2019-05-25T21:45:38.362Z,13.65
2019-05-25T21:48:07.158Z,8.73
2019-05-25T21:50:36.033Z,8.78
2019-05-25T21:53:05.122Z,8.45
2019-05-25T21:55:36.816Z,9.20
2019-05-25T21:58:05.799Z,8.80
2019-05-25T22:00:36.387Z,9.83
2019-05-25T22:03:05.489Z,9.78
2019-05-25T22:05:35.936Z,9.30
2019-05-25T22:08:04.908Z,10.05
2019-05-25T22:10:33.756Z,9.90
2019-05-25T22:13:02.628Z,9.15
2019-05-25T22:15:31.737Z,9.85
2019-05-25T22:18:00.402Z,9.70
2019-05-25T22:20:34.272Z,9.65
2019-05-25T22:23:04.961Z,8.73
2019-05-25T22:25:36.623Z,9.50
2019-05-25T22:28:05.759Z,8.68
2019-05-25T22:30:34.481Z,6.60
2019-05-25T22:33:03.372Z,6.70
2019-05-25T22:35:32.120Z,6.83
2019-05-25T22:38:01.007Z,7.00
2019-05-25T22:40:29.771Z,7.97
2019-05-25T22:42:58.611Z,8.10
2019-05-25T22:45:27.497Z,6.92
2019-05-25T22:47:56.469Z,7.15
2019-05-25T22:50:25.388Z,7.37
2019-05-25T22:52:54.232Z,7.95
2019-05-25T22:55:23.273Z,7.30
2019-05-25T22:57:52.723Z,7.72
2019-05-25T23:00:22.925Z,7.97
2019-05-25T23:02:51.766Z,13.53
2019-05-25T23:05:20.880Z,8.53
2019-05-25T23:07:49.719Z,10.40
2019-05-25T23:10:18.646Z,12.68
2019-05-25T23:12:47.382Z,12.95
2019-05-25T23:15:16.319Z,13.70
2019-05-25T23:17:45.080Z,13.72
2019-05-25T23:20:14.007Z,15.03
2019-05-25T23:22:42.826Z,15.25
2019-05-25T23:25:11.835Z,15.28
2019-05-25T23:27:43.596Z,14.20
2019-05-25T23:30:12.735Z,16.35
2019-05-25T23:32:41.741Z,16.12
2019-05-25T23:35:10.936Z,15.72
2019-05-25T23:37:39.848Z,16.90
2019-05-25T23:40:09.095Z,16.80
2019-05-25T23:42:37.926Z,17.37
2019-05-25T23:45:08.106Z,20.55
2019-05-25T23:47:36.878Z,20.70
2019-05-25T23:50:08.843Z,19.23
2019-05-25T23:52:40.344Z,20.20
2019-05-25T23:55:09.601Z,20.17
2019-05-25T23:57:42.540Z,21.42
